sensor_id;sensor_type;location;lat;lon;timestamp;pressure;altitude;pressure_sealevel;temperature;humidity
22047;BME280;11187;49.412;20.956;2022-08-21T00:00:43;94623.63;;;19.93;100.00
22047;BME280;11187;49.412;20.956;2022-08-21T00:03:17;94615.94;;;19.91;100.00
22047;BME280;11187;49.412;20.956;2022-08-21T00:06:03;94614.19;;;19.92;100.00
22047;BME280;11187;49.412;20.956;2022-08-21T00:08:39;94606.41;;;19.92;100.00
22047;BME280;11187;49.412;20.956;2022-08-21T00:11:34;94603.69;;;19.93;100.00
22047;BME280;11187;49.412;20.956;2022-08-21T00:14:08;94603.69;;;19.93;100.00
22047;BME280;11187;49.412;20.956;2022-08-21T00:16:55;94610.66;;;19.93;100.00
22047;BME280;11187;49.412;20.956;2022-08-21T00:19:29;94603.78;;;19.92;100.00
22047;BME280;11187;49.412;20.956;2022-08-21T00:22:23;94606.69;;;19.87;100.00
22047;BME280;11187;49.412;20.956;2022-08-21T00:25:18;94604.19;;;19.86;100.00
22047;BME280;11187;49.412;20.956;2022-08-21T00:27:52;94612.88;;;19.85;100.00
22047;BME280;11187;49.412;20.956;2022-08-21T00:30:46;94613.09;;;19.81;100.00
22047;BME280;11187;49.412;20.956;2022-08-21T00:33:41;94612.34;;;19.79;100.00
22047;BME280;11187;49.412;20.956;2022-08-21T00:36:15;94611.50;;;19.79;100.00
22047;BME280;11187;49.412;20.956;2022-08-21T00:39:05;94607.44;;;19.75;100.00
22047;BME280;11187;49.412;20.956;2022-08-21T00:41:39;94601.50;;;19.73;100.00
22047;BME280;11187;49.412;20.956;2022-08-21T00:44:26;94610.25;;;19.72;100.00
22047;BME280;11187;49.412;20.956;2022-08-21T00:47:00;94613.00;;;19.69;100.00
22047;BME280;11187;49.412;20.956;2022-08-21T00:49:46;94607.06;;;19.67;100.00
22047;BME280;11187;49.412;20.956;2022-08-21T00:52:22;94596.69;;;19.67;100.00
22047;BME280;11187;49.412;20.956;2022-08-21T00:55:11;94591.50;;;19.67;100.00
22047;BME280;11187;49.412;20.956;2022-08-21T00:57:49;94588.78;;;19.68;100.00
22047;BME280;11187;49.412;20.956;2022-08-21T01:00:49;94580.16;;;19.68;100.00
22047;BME280;11187;49.412;20.956;2022-08-21T01:03:26;94582.75;;;19.68;100.00
22047;BME280;11187;49.412;20.956;2022-08-21T01:06:13;94577.66;;;19.66;100.00
22047;BME280;11187;49.412;20.956;2022-08-21T01:08:47;94576.00;;;19.65;100.00
22047;BME280;11187;49.412;20.956;2022-08-21T01:11:35;94576.06;;;19.64;100.00
22047;BME280;11187;49.412;20.956;2022-08-21T01:14:09;94579.63;;;19.63;100.00
22047;BME280;11187;49.412;20.956;2022-08-21T01:16:51;94583.25;;;19.60;100.00
22047;BME280;11187;49.412;20.956;2022-08-21T01:19:31;94582.50;;;19.58;100.00
22047;BME280;11187;49.412;20.956;2022-08-21T01:22:18;94582.59;;;19.56;100.00
22047;BME280;11187;49.412;20.956;2022-08-21T01:25:14;94579.16;;;19.56;100.00
22047;BME280;11187;49.412;20.956;2022-08-21T01:27:49;94576.56;;;19.56;100.00
22047;BME280;11187;49.412;20.956;2022-08-21T01:30:37;94573.16;;;19.55;100.00
22047;BME280;11187;49.412;20.956;2022-08-21T01:33:11;94570.63;;;19.54;100.00
22047;BME280;11187;49.412;20.956;2022-08-21T01:35:57;94569.97;;;19.50;100.00
22047;BME280;11187;49.412;20.956;2022-08-21T01:38:33;94572.69;;;19.49;100.00
22047;BME280;11187;49.412;20.956;2022-08-21T01:41:20;94566.75;;;19.47;100.00
22047;BME280;11187;49.412;20.956;2022-08-21T01:43:54;94562.47;;;19.46;100.00
22047;BME280;11187;49.412;20.956;2022-08-21T01:46:40;94562.59;;;19.44;100.00
22047;BME280;11187;49.412;20.956;2022-08-21T01:49:14;94568.59;;;19.45;100.00
22047;BME280;11187;49.412;20.956;2022-08-21T01:52:02;94564.31;;;19.44;100.00
22047;BME280;11187;49.412;20.956;2022-08-21T01:54:37;94564.31;;;19.44;100.00
22047;BME280;11187;49.412;20.956;2022-08-21T01:57:35;94556.53;;;19.44;100.00
22047;BME280;11187;49.412;20.956;2022-08-21T02:00:28;94555.81;;;19.41;100.00
22047;BME280;11187;49.412;20.956;2022-08-21T02:03:02;94558.41;;;19.41;100.00
22047;BME280;11187;49.412;20.956;2022-08-21T02:06:15;94546.34;;;19.40;100.00
22047;BME280;11187;49.412;20.956;2022-08-21T02:09:10;94544.78;;;19.38;100.00
22047;BME280;11187;49.412;20.956;2022-08-21T02:11:45;94544.06;;;19.36;100.00
22047;BME280;11187;49.412;20.956;2022-08-21T02:14:32;94545.81;;;19.35;100.00
22047;BME280;11187;49.412;20.956;2022-08-21T02:17:06;94547.59;;;19.35;100.00
22047;BME280;11187;49.412;20.956;2022-08-21T02:19:52;94547.69;;;19.33;100.00
22047;BME280;11187;49.412;20.956;2022-08-21T02:22:26;94539.06;;;19.33;100.00
22047;BME280;11187;49.412;20.956;2022-08-21T02:25:12;94543.38;;;19.32;100.00
22047;BME280;11187;49.412;20.956;2022-08-21T02:27:46;94539.16;;;19.31;100.00
22047;BME280;11187;49.412;20.956;2022-08-21T02:30:36;94541.81;;;19.30;100.00
22047;BME280;11187;49.412;20.956;2022-08-21T02:33:16;94544.41;;;19.30;100.00
22047;BME280;11187;49.412;20.956;2022-08-21T02:36:04;94542.03;;;19.27;100.00
22047;BME280;11187;49.412;20.956;2022-08-21T02:38:38;94535.34;;;19.23;100.00
22047;BME280;11187;49.412;20.956;2022-08-21T02:41:25;94536.47;;;19.18;100.00
22047;BME280;11187;49.412;20.956;2022-08-21T02:43:59;94534.81;;;19.17;100.00
22047;BME280;11187;49.412;20.956;2022-08-21T02:46:45;94542.88;;;19.13;100.00
22047;BME280;11187;49.412;20.956;2022-08-21T02:49:19;94534.34;;;19.11;100.00
22047;BME280;11187;49.412;20.956;2022-08-21T02:52:05;94537.97;;;19.08;100.00
22047;BME280;11187;49.412;20.956;2022-08-21T02:54:39;94533.06;;;19.04;100.00
22047;BME280;11187;49.412;20.956;2022-08-21T02:57:25;94535.09;;;18.98;100.00
22047;BME280;11187;49.412;20.956;2022-08-21T02:59:59;94549.06;;;18.96;100.00
22047;BME280;11187;49.412;20.956;2022-08-21T03:02:46;94545.94;;;18.91;100.00
22047;BME280;11187;49.412;20.956;2022-08-21T03:05:19;94552.13;;;18.88;100.00
22047;BME280;11187;49.412;20.956;2022-08-21T03:08:14;94551.47;;;18.85;100.00
22047;BME280;11187;49.412;20.956;2022-08-21T03:11:08;94545.56;;;18.83;100.00
22047;BME280;11187;49.412;20.956;2022-08-21T03:13:42;94549.25;;;18.78;100.00
22047;BME280;11187;49.412;20.956;2022-08-21T03:16:28;94537.38;;;18.74;100.00
22047;BME280;11187;49.412;20.956;2022-08-21T03:19:02;94543.66;;;18.70;100.00
22047;BME280;11187;49.412;20.956;2022-08-21T03:21:55;94543.75;;;18.69;100.00
22047;BME280;11187;49.412;20.956;2022-08-21T03:24:49;94546.44;;;18.67;100.00
22047;BME280;11187;49.412;20.956;2022-08-21T03:27:45;94542.09;;;18.68;100.00
22047;BME280;11187;49.412;20.956;2022-08-21T03:30:24;94537.84;;;18.67;100.00
22047;BME280;11187;49.412;20.956;2022-08-21T03:33:19;94531.91;;;18.65;100.00
22047;BME280;11187;49.412;20.956;2022-08-21T03:36:13;94542.16;;;18.66;100.00
22047;BME280;11187;49.412;20.956;2022-08-21T03:39:07;94536.34;;;18.63;100.00
22047;BME280;11187;49.412;20.956;2022-08-21T03:41:41;94542.34;;;18.63;100.00
22047;BME280;11187;49.412;20.956;2022-08-21T03:44:35;94535.53;;;18.62;100.00
22047;BME280;11187;49.412;20.956;2022-08-21T03:47:28;94545.69;;;18.65;100.00
22047;BME280;11187;49.412;20.956;2022-08-21T03:50:03;94546.34;;;18.69;100.00
22047;BME280;11187;49.412;20.956;2022-08-21T03:52:50;94539.41;;;18.69;100.00
22047;BME280;11187;49.412;20.956;2022-08-21T03:55:25;94541.88;;;18.71;100.00
22047;BME280;11187;49.412;20.956;2022-08-21T03:58:22;94544.47;;;18.71;100.00
22047;BME280;11187;49.412;20.956;2022-08-21T04:00:57;94543.66;;;18.70;100.00
22047;BME280;11187;49.412;20.956;2022-08-21T04:03:45;94540.25;;;18.70;100.00
22047;BME280;11187;49.412;20.956;2022-08-21T04:06:19;94542.84;;;18.70;100.00
22047;BME280;11187;49.412;20.956;2022-08-21T04:09:05;94538.47;;;18.70;100.00
22047;BME280;11187;49.412;20.956;2022-08-21T04:11:39;94541.81;;;18.72;100.00
22047;BME280;11187;49.412;20.956;2022-08-21T04:14:26;94540.03;;;18.73;100.00
22047;BME280;11187;49.412;20.956;2022-08-21T04:17:00;94545.16;;;18.74;100.00
22047;BME280;11187;49.412;20.956;2022-08-21T04:19:46;94550.34;;;18.74;100.00
22047;BME280;11187;49.412;20.956;2022-08-21T04:22:20;94551.09;;;18.76;100.00
22047;BME280;11187;49.412;20.956;2022-08-21T04:25:07;94551.94;;;18.77;100.00
22047;BME280;11187;49.412;20.956;2022-08-21T04:27:40;94557.03;;;18.78;100.00
22047;BME280;11187;49.412;20.956;2022-08-21T04:30:27;94554.44;;;18.78;100.00
22047;BME280;11187;49.412;20.956;2022-08-21T04:33:01;94557.69;;;18.82;100.00
22047;BME280;11187;49.412;20.956;2022-08-21T04:35:48;94555.75;;;18.86;100.00
22047;BME280;11187;49.412;20.956;2022-08-21T04:38:22;94552.97;;;18.89;100.00
22047;BME280;11187;49.412;20.956;2022-08-21T04:41:21;94559.84;;;18.90;100.00
22047;BME280;11187;49.412;20.956;2022-08-21T04:43:55;94562.44;;;18.90;100.00
22047;BME280;11187;49.412;20.956;2022-08-21T04:46:41;94558.00;;;18.92;100.00
22047;BME280;11187;49.412;20.956;2022-08-21T04:49:15;94564.63;;;18.96;100.00
22047;BME280;11187;49.412;20.956;2022-08-21T04:52:02;94565.38;;;18.98;100.00
22047;BME280;11187;49.412;20.956;2022-08-21T04:54:35;94560.84;;;19.02;100.00
22047;BME280;11187;49.412;20.956;2022-08-21T04:57:34;94568.56;;;19.03;100.00
22047;BME280;11187;49.412;20.956;2022-08-21T05:00:27;94564.06;;;19.05;100.00
22047;BME280;11187;49.412;20.956;2022-08-21T05:03:01;94564.81;;;19.07;100.00
22047;BME280;11187;49.412;20.956;2022-08-21T05:05:50;94564.75;;;19.09;100.00
22047;BME280;11187;49.412;20.956;2022-08-21T05:08:25;94566.22;;;19.13;100.00
22047;BME280;11187;49.412;20.956;2022-08-21T05:11:14;94567.72;;;19.17;100.00
22047;BME280;11187;49.412;20.956;2022-08-21T05:13:48;94572.50;;;19.23;100.00
22047;BME280;11187;49.412;20.956;2022-08-21T05:16:42;94575.47;;;19.31;100.00
22047;BME280;11187;49.412;20.956;2022-08-21T05:19:36;94582.91;;;19.37;100.00
22047;BME280;11187;49.412;20.956;2022-08-21T05:22:18;94576.47;;;19.43;100.00
22047;BME280;11187;49.412;20.956;2022-08-21T05:25:06;94577.88;;;19.49;100.00
22047;BME280;11187;49.412;20.956;2022-08-21T05:27:39;94582.78;;;19.53;100.00
22047;BME280;11187;49.412;20.956;2022-08-21T05:30:26;94579.03;;;19.57;100.00
22047;BME280;11187;49.412;20.956;2022-08-21T05:33:02;94581.28;;;19.64;100.00
22047;BME280;11187;49.412;20.956;2022-08-21T05:35:50;94591.38;;;19.68;100.00
22047;BME280;11187;49.412;20.956;2022-08-21T05:38:25;94587.59;;;19.74;100.00
22047;BME280;11187;49.412;20.956;2022-08-21T05:41:19;94591.78;;;19.76;100.00
22047;BME280;11187;49.412;20.956;2022-08-21T05:44:14;94582.94;;;19.79;100.00
22047;BME280;11187;49.412;20.956;2022-08-21T05:47:10;94583.59;;;19.83;100.00
22047;BME280;11187;49.412;20.956;2022-08-21T05:50:04;94586.81;;;19.86;100.00
22047;BME280;11187;49.412;20.956;2022-08-21T05:52:38;94580.41;;;19.92;100.00
22047;BME280;11187;49.412;20.956;2022-08-21T05:55:36;94585.41;;;19.95;100.00
22047;BME280;11187;49.412;20.956;2022-08-21T05:58:19;94580.75;;;20.00;100.00
22047;BME280;11187;49.412;20.956;2022-08-21T06:01:07;94577.97;;;20.03;100.00
22047;BME280;11187;49.412;20.956;2022-08-21T06:03:42;94577.75;;;20.06;100.00
22047;BME280;11187;49.412;20.956;2022-08-21T06:06:28;94581.84;;;20.10;100.00
22047;BME280;11187;49.412;20.956;2022-08-21T06:09:03;94578.81;;;20.16;100.00
22047;BME280;11187;49.412;20.956;2022-08-21T06:11:49;94574.69;;;20.27;100.00
22047;BME280;11187;49.412;20.956;2022-08-21T06:14:23;94573.38;;;20.34;100.00
22047;BME280;11187;49.412;20.956;2022-08-21T06:17:11;94570.16;;;20.43;100.00
22047;BME280;11187;49.412;20.956;2022-08-21T06:19:45;94568.50;;;20.55;100.00
22047;BME280;11187;49.412;20.956;2022-08-21T06:22:38;94567.53;;;20.70;100.00
22047;BME280;11187;49.412;20.956;2022-08-21T06:25:33;94570.03;;;20.84;100.00
22047;BME280;11187;49.412;20.956;2022-08-21T06:28:27;94563.38;;;20.93;100.00
22047;BME280;11187;49.412;20.956;2022-08-21T06:31:00;94569.72;;;21.02;100.00
22047;BME280;11187;49.412;20.956;2022-08-21T06:33:54;94568.06;;;21.01;100.00
22047;BME280;11187;49.412;20.956;2022-08-21T06:36:28;94573.16;;;21.02;100.00
22047;BME280;11187;49.412;20.956;2022-08-21T06:39:14;94574.09;;;21.01;100.00
22047;BME280;11187;49.412;20.956;2022-08-21T06:41:56;94571.59;;;21.00;100.00
22047;BME280;11187;49.412;20.956;2022-08-21T06:44:49;94568.16;;;20.99;100.00
22047;BME280;11187;49.412;20.956;2022-08-21T06:47:43;94569.94;;;20.99;100.00
22047;BME280;11187;49.412;20.956;2022-08-21T06:50:17;94569.00;;;21.00;100.00
22047;BME280;11187;49.412;20.956;2022-08-21T06:53:13;94574.19;;;21.00;100.00
22047;BME280;11187;49.412;20.956;2022-08-21T06:55:47;94573.28;;;21.01;100.00
22047;BME280;11187;49.412;20.956;2022-08-21T06:58:33;94572.41;;;21.00;100.00
22047;BME280;11187;49.412;20.956;2022-08-21T07:01:07;94575.88;;;21.01;100.00
22047;BME280;11187;49.412;20.956;2022-08-21T07:03:54;94574.19;;;21.00;100.00
22047;BME280;11187;49.412;20.956;2022-08-21T07:06:27;94572.53;;;20.99;100.00
22047;BME280;11187;49.412;20.956;2022-08-21T07:09:13;94568.16;;;20.99;100.00
22047;BME280;11187;49.412;20.956;2022-08-21T07:11:52;94576.06;;;20.98;100.00
22047;BME280;11187;49.412;20.956;2022-08-21T07:14:46;94572.72;;;20.96;100.00
22047;BME280;11187;49.412;20.956;2022-08-21T07:17:40;94567.84;;;20.91;100.00
22047;BME280;11187;49.412;20.956;2022-08-21T07:20:34;94565.47;;;20.88;100.00
22047;BME280;11187;49.412;20.956;2022-08-21T07:23:12;94558.59;;;20.87;100.00
22047;BME280;11187;49.412;20.956;2022-08-21T07:25:59;94554.31;;;20.86;100.00
22047;BME280;11187;49.412;20.956;2022-08-21T07:28:34;94561.22;;;20.87;100.00
22047;BME280;11187;49.412;20.956;2022-08-21T07:31:23;94556.19;;;20.84;100.00
22047;BME280;11187;49.412;20.956;2022-08-21T07:33:57;94555.38;;;20.83;100.00
22047;BME280;11187;49.412;20.956;2022-08-21T07:36:43;94557.97;;;20.83;100.00
22047;BME280;11187;49.412;20.956;2022-08-21T07:39:17;94557.00;;;20.84;100.00
22047;BME280;11187;49.412;20.956;2022-08-21T07:42:03;94555.47;;;20.82;100.00
22047;BME280;11187;49.412;20.956;2022-08-21T07:44:37;94564.13;;;20.82;100.00
22047;BME280;11187;49.412;20.956;2022-08-21T07:47:23;94556.31;;;20.82;100.00
22047;BME280;11187;49.412;20.956;2022-08-21T07:50:12;94564.94;;;20.83;100.00
22047;BME280;11187;49.412;20.956;2022-08-21T07:52:58;94557.97;;;20.83;100.00
22047;BME280;11187;49.412;20.956;2022-08-21T07:55:32;94561.31;;;20.85;100.00
22047;BME280;11187;49.412;20.956;2022-08-21T07:58:18;94554.31;;;20.86;100.00
22047;BME280;11187;49.412;20.956;2022-08-21T08:00:52;94554.97;;;20.90;100.00
22047;BME280;11187;49.412;20.956;2022-08-21T08:03:39;94558.28;;;20.92;100.00
22047;BME280;11187;49.412;20.956;2022-08-21T08:06:12;94557.13;;;20.96;100.00
22047;BME280;11187;49.412;20.956;2022-08-21T08:08:59;94556.94;;;20.99;100.00
22047;BME280;11187;49.412;20.956;2022-08-21T08:11:38;94560.13;;;21.02;100.00
22047;BME280;11187;49.412;20.956;2022-08-21T08:14:26;94552.34;;;21.02;100.00
22047;BME280;11187;49.412;20.956;2022-08-21T08:17:00;94564.44;;;21.03;100.00
22047;BME280;11187;49.412;20.956;2022-08-21T08:19:53;94564.53;;;21.02;100.00
22047;BME280;11187;49.412;20.956;2022-08-21T08:22:27;94556.63;;;21.03;100.00
22047;BME280;11187;49.412;20.956;2022-08-21T08:25:14;94565.34;;;21.02;100.00
22047;BME280;11187;49.412;20.956;2022-08-21T08:27:48;94554.00;;;21.03;100.00
22047;BME280;11187;49.412;20.956;2022-08-21T08:30:35;94556.41;;;21.06;100.00
22047;BME280;11187;49.412;20.956;2022-08-21T08:33:09;94551.91;;;21.09;100.00
22047;BME280;11187;49.412;20.956;2022-08-21T08:35:56;94551.81;;;21.10;100.00
22047;BME280;11187;49.412;20.956;2022-08-21T08:38:33;94552.44;;;21.14;100.00
22047;BME280;11187;49.412;20.956;2022-08-21T08:41:22;94542.66;;;21.17;100.00
22047;BME280;11187;49.412;20.956;2022-08-21T08:44:02;94539.63;;;21.23;100.00
22047;BME280;11187;49.412;20.956;2022-08-21T08:46:50;94538.13;;;21.32;100.00
22047;BME280;11187;49.412;20.956;2022-08-21T08:49:27;94528.97;;;21.39;100.00
22047;BME280;11187;49.412;20.956;2022-08-21T08:52:33;94538.66;;;21.50;100.00
22047;BME280;11187;49.412;20.956;2022-08-21T08:55:18;94539.78;;;21.59;100.00
22047;BME280;11187;49.412;20.956;2022-08-21T08:58:33;94534.97;;;21.65;100.00
22047;BME280;11187;49.412;20.956;2022-08-21T09:01:15;94545.34;;;21.78;100.00
22047;BME280;11187;49.412;20.956;2022-08-21T09:04:22;94534.59;;;21.83;100.00
22047;BME280;11187;49.412;20.956;2022-08-21T09:07:50;94536.16;;;21.85;100.00
22047;BME280;11187;49.412;20.956;2022-08-21T09:10:38;94536.72;;;21.89;100.00
22047;BME280;11187;49.412;20.956;2022-08-21T09:19:12;94537.03;;;21.97;100.00
22047;BME280;11187;49.412;20.956;2022-08-21T09:24:58;94531.38;;;22.03;100.00
22047;BME280;11187;49.412;20.956;2022-08-21T09:27:35;94525.09;;;22.06;100.00
22047;BME280;11187;49.412;20.956;2022-08-21T09:30:32;94536.34;;;22.06;99.80
22047;BME280;11187;49.412;20.956;2022-08-21T09:33:05;94536.97;;;22.10;99.25
22047;BME280;11187;49.412;20.956;2022-08-21T09:35:58;94537.81;;;22.10;99.84
22047;BME280;11187;49.412;20.956;2022-08-21T09:38:35;94521.81;;;22.15;99.28
22047;BME280;11187;49.412;20.956;2022-08-21T09:41:33;94526.78;;;22.18;99.33
22047;BME280;11187;49.412;20.956;2022-08-21T09:44:08;94527.53;;;22.20;99.22
22047;BME280;11187;49.412;20.956;2022-08-21T09:46:55;94526.69;;;22.20;98.90
22047;BME280;11187;49.412;20.956;2022-08-21T09:49:31;94530.13;;;22.20;99.20
22047;BME280;11187;49.412;20.956;2022-08-21T09:52:25;94529.22;;;22.21;99.30
22047;BME280;11187;49.412;20.956;2022-08-21T09:54:59;94530.78;;;22.24;99.06
22047;BME280;11187;49.412;20.956;2022-08-21T09:58:14;94525.75;;;22.21;99.30
22047;BME280;11187;49.412;20.956;2022-08-21T10:01:14;94528.47;;;22.19;99.53
22047;BME280;11187;49.412;20.956;2022-08-21T10:03:49;94533.78;;;22.18;99.05
22047;BME280;11187;49.412;20.956;2022-08-21T10:06:48;94532.25;;;22.15;98.42
22047;BME280;11187;49.412;20.956;2022-08-21T10:09:23;94531.44;;;22.15;98.97
22047;BME280;11187;49.412;20.956;2022-08-21T10:12:20;94528.19;;;22.11;99.23
22047;BME280;11187;49.412;20.956;2022-08-21T10:18:15;94527.81;;;22.04;99.46
22047;BME280;11187;49.412;20.956;2022-08-21T10:21:27;94528.78;;;22.03;99.07
22047;BME280;11187;49.412;20.956;2022-08-21T10:24:30;94526.25;;;22.02;99.44
22047;BME280;11187;49.412;20.956;2022-08-21T10:34:09;94533.75;;;22.06;99.36
22047;BME280;11187;49.412;20.956;2022-08-21T10:39:59;94532.91;;;22.06;98.89
22047;BME280;11187;49.412;20.956;2022-08-21T10:55:22;94541.34;;;22.09;98.61
22047;BME280;11187;49.412;20.956;2022-08-21T10:58:36;94549.38;;;22.06;98.50
22047;BME280;11187;49.412;20.956;2022-08-21T11:07:46;94546.88;;;22.05;98.73
22047;BME280;11187;49.412;20.956;2022-08-21T11:10:50;94533.75;;;22.06;99.33
22047;BME280;11187;49.412;20.956;2022-08-21T11:13:37;94536.97;;;22.10;99.27
22047;BME280;11187;49.412;20.956;2022-08-21T11:16:36;94536.75;;;22.13;99.44
22047;BME280;11187;49.412;20.956;2022-08-21T11:22:26;94529.22;;;22.21;99.33
22047;BME280;11187;49.412;20.956;2022-08-21T11:25:32;94534.09;;;22.26;99.81
22047;BME280;11187;49.412;20.956;2022-08-21T11:28:31;94534.81;;;22.28;98.06
22047;BME280;11187;49.412;20.956;2022-08-21T11:38:27;94528.66;;;22.29;97.45
22047;BME280;11187;49.412;20.956;2022-08-21T11:41:36;94521.91;;;22.26;98.33
22047;BME280;11187;49.412;20.956;2022-08-21T11:44:48;94518.31;;;22.27;98.23
22047;BME280;11187;49.412;20.956;2022-08-21T11:47:36;94515.72;;;22.27;98.17
22047;BME280;11187;49.412;20.956;2022-08-21T11:50:35;94509.69;;;22.27;98.28
22047;BME280;11187;49.412;20.956;2022-08-21T11:53:37;94508.63;;;22.29;98.01
22047;BME280;11187;49.412;20.956;2022-08-21T11:56:37;94508.50;;;22.31;97.98
22047;BME280;11187;49.412;20.956;2022-08-21T11:59:17;94508.41;;;22.33;97.81
22047;BME280;11187;49.412;20.956;2022-08-21T12:02:23;94502.34;;;22.32;98.10
22047;BME280;11187;49.412;20.956;2022-08-21T12:05:32;94500.78;;;22.29;98.36
22047;BME280;11187;49.412;20.956;2022-08-21T12:08:12;94500.78;;;22.29;97.61
22047;BME280;11187;49.412;20.956;2022-08-21T12:11:23;94488.81;;;22.27;97.99
22047;BME280;11187;49.412;20.956;2022-08-21T12:17:05;94492.59;;;22.23;98.33
22047;BME280;11187;49.412;20.956;2022-08-21T12:19:57;94502.41;;;22.19;98.18
22047;BME280;11187;49.412;20.956;2022-08-21T12:22:51;94511.06;;;22.20;98.63
22047;BME280;11187;49.412;20.956;2022-08-21T12:26:17;94512.84;;;22.19;99.12
22047;BME280;11187;49.412;20.956;2022-08-21T12:29:33;94511.16;;;22.18;98.88
22047;BME280;11187;49.412;20.956;2022-08-21T12:35:07;94499.06;;;22.17;99.03
22047;BME280;11187;49.412;20.956;2022-08-21T12:38:02;94491.34;;;22.16;99.13
22047;BME280;11187;49.412;20.956;2022-08-21T12:41:04;94470.50;;;22.16;98.41
22047;BME280;11187;49.412;20.956;2022-08-21T12:44:04;94458.28;;;22.16;99.23
22047;BME280;11187;49.412;20.956;2022-08-21T12:47:05;94451.31;;;22.17;99.10
22047;BME280;11187;49.412;20.956;2022-08-21T12:53:12;94460.06;;;22.16;99.43
22047;BME280;11187;49.412;20.956;2022-08-21T12:56:03;94469.69;;;22.15;99.35
22047;BME280;11187;49.412;20.956;2022-08-21T12:58:40;94476.69;;;22.15;99.58
22047;BME280;11187;49.412;20.956;2022-08-21T13:04:10;94463.75;;;22.13;99.93
22047;BME280;11187;49.412;20.956;2022-08-21T13:06:58;94488.16;;;22.12;99.85
22047;BME280;11187;49.412;20.956;2022-08-21T13:09:32;94512.66;;;22.09;100.00
22047;BME280;11187;49.412;20.956;2022-08-21T13:12:20;94518.00;;;22.08;99.93
22047;BME280;11187;49.412;20.956;2022-08-21T13:15:02;94510.06;;;22.09;100.00
22047;BME280;11187;49.412;20.956;2022-08-21T13:17:56;94494.53;;;22.08;99.82
22047;BME280;11187;49.412;20.956;2022-08-21T13:20:51;94485.19;;;22.05;100.00
22047;BME280;11187;49.412;20.956;2022-08-21T13:23:27;94494.75;;;22.05;100.00
22047;BME280;11187;49.412;20.956;2022-08-21T13:26:18;94496.66;;;22.03;100.00
22047;BME280;11187;49.412;20.956;2022-08-21T13:28:52;94504.47;;;22.03;100.00
22047;BME280;11187;49.412;20.956;2022-08-21T13:31:49;94512.50;;;22.00;100.00
22047;BME280;11187;49.412;20.956;2022-08-21T13:34:46;94515.00;;;22.01;100.00
22047;BME280;11187;49.412;20.956;2022-08-21T13:37:26;94497.81;;;21.99;100.00
22047;BME280;11187;49.412;20.956;2022-08-21T13:40:19;94481.34;;;21.98;100.00
22047;BME280;11187;49.412;20.956;2022-08-21T13:42:56;94478.03;;;21.96;100.00
22047;BME280;11187;49.412;20.956;2022-08-21T13:45:47;94489.28;;;21.97;100.00
22047;BME280;11187;49.412;20.956;2022-08-21T13:48:23;94496.38;;;21.95;100.00
22047;BME280;11187;49.412;20.956;2022-08-21T13:51:18;94503.47;;;21.93;100.00
22047;BME280;11187;49.412;20.956;2022-08-21T13:54:25;94507.97;;;21.90;100.00
22047;BME280;11187;49.412;20.956;2022-08-21T13:57:29;94522.88;;;21.88;100.00
22047;BME280;11187;49.412;20.956;2022-08-21T14:00:29;94521.44;;;21.84;100.00
22047;BME280;11187;49.412;20.956;2022-08-21T14:03:55;94522.38;;;21.83;100.00
22047;BME280;11187;49.412;20.956;2022-08-21T14:06:34;94518.09;;;21.82;100.00
22047;BME280;11187;49.412;20.956;2022-08-21T14:09:32;94514.81;;;21.80;100.00
22047;BME280;11187;49.412;20.956;2022-08-21T14:12:19;94512.41;;;21.77;100.00
22047;BME280;11187;49.412;20.956;2022-08-21T14:15:13;94508.25;;;21.75;100.00
22047;BME280;11187;49.412;20.956;2022-08-21T14:17:47;94510.84;;;21.75;100.00
22047;BME280;11187;49.412;20.956;2022-08-21T14:20:39;94518.75;;;21.73;100.00
22047;BME280;11187;49.412;20.956;2022-08-21T14:23:23;94514.63;;;21.71;100.00
22047;BME280;11187;49.412;20.956;2022-08-21T14:26:11;94512.00;;;21.71;100.00
22047;BME280;11187;49.412;20.956;2022-08-21T14:28:44;94517.34;;;21.69;100.00
22047;BME280;11187;49.412;20.956;2022-08-21T14:31:31;94521.84;;;21.67;100.00
22047;BME280;11187;49.412;20.956;2022-08-21T14:34:12;94528.81;;;21.66;100.00
22047;BME280;11187;49.412;20.956;2022-08-21T14:36:59;94524.44;;;21.67;100.00
22047;BME280;11187;49.412;20.956;2022-08-21T14:39:32;94525.25;;;21.67;100.00
22047;BME280;11187;49.412;20.956;2022-08-21T14:42:24;94519.22;;;21.67;100.00
22047;BME280;11187;49.412;20.956;2022-08-21T14:45:05;94514.84;;;21.67;100.00
22047;BME280;11187;49.412;20.956;2022-08-21T14:47:56;94516.63;;;21.67;100.00
22047;BME280;11187;49.412;20.956;2022-08-21T14:50:30;94526.09;;;21.68;100.00
22047;BME280;11187;49.412;20.956;2022-08-21T14:53:17;94523.38;;;21.69;100.00
22047;BME280;11187;49.412;20.956;2022-08-21T14:55:50;94522.44;;;21.71;100.00
22047;BME280;11187;49.412;20.956;2022-08-21T14:58:50;94522.44;;;21.71;100.00
22047;BME280;11187;49.412;20.956;2022-08-21T15:01:24;94532.75;;;21.72;100.00
22047;BME280;11187;49.412;20.956;2022-08-21T15:04:11;94536.09;;;21.74;100.00
22047;BME280;11187;49.412;20.956;2022-08-21T15:06:44;94535.13;;;21.75;100.00
22047;BME280;11187;49.412;20.956;2022-08-21T15:09:31;94532.66;;;21.74;100.00
22047;BME280;11187;49.412;20.956;2022-08-21T15:12:05;94535.97;;;21.76;100.00
22047;BME280;11187;49.412;20.956;2022-08-21T15:14:52;94536.81;;;21.76;100.00
22047;BME280;11187;49.412;20.956;2022-08-21T15:17:25;94534.78;;;21.80;100.00
22047;BME280;11187;49.412;20.956;2022-08-21T15:20:23;94536.56;;;21.79;100.00
22047;BME280;11187;49.412;20.956;2022-08-21T15:22:56;94519.88;;;21.82;100.00